NCAR-RAP Real-Time Weather Data

Output produced by METARs form (23 January 2018  15:38 UTC)
found at http://weather.rap.ucar.edu/surface/
 
RJBE 231200Z 28014KT 9999 FEW035 SCT050 01/M09 Q1016
RJBE 231100Z 30013KT 270V330 9999 FEW030 SCT050 02/M09 Q1015
RJBE 231000Z 30017KT 9999 FEW020 03/M10 Q1014
RJBE 230900Z 30014KT 9999 FEW020 04/M08 Q1013
RJBE 230800Z 28016KT 9999 FEW020 05/M04 Q1012
RJBE 230700Z 30022KT 9999 FEW020 SCT/// 05/M01 Q1012
RJBE 230600Z 27025G36KT 9999 -SHRA FEW020 SCT040 BKN060 07/M02 Q1012
RJBE 230500Z 29018KT 9999 VCSH FEW020 SCT040 07/M01 Q1011
RJBE 230400Z 27024G34KT 9999 -SHRA FEW025 SCT040 09/01 Q1010
RJBE 230300Z 27021KT 9999 VCSH FEW025 09/01 Q1010
RJBE 230200Z 28024KT 9999 FEW025 09/01 Q1011
RJBE 230100Z 27017KT 9999 FEW025 09/05 Q1011
RJBE 230000Z 27016KT 9999 VCSH FEW020 SCT050 08/05 Q1011
RJBE 222300Z 24017KT 9999 VCSH FEW025 BKN040 08/05 Q1010
RJBE 222200Z 23015KT 9999 FEW025 BKN040 08/04 Q1010
RJBE 221200Z 30005KT 9999 FEW015 02/01 Q1011
RJBE 221100Z 31005KT 9999 FEW010 BKN050 03/02 Q1012
RJBE 221000Z 29006KT 270V350 9999 FEW010 SCT025 BKN040 04/02 Q1012
RJBE 220900Z 29007KT 9999 -RA FEW010 SCT020 BKN025 04/02 Q1011
RJBE 220800Z 32009KT 9999 -RA FEW010 SCT015 BKN020 04/02 Q1011
RJBE 220700Z 30009KT 9999 -RA FEW008 SCT010 BKN020 04/02 Q1010
RJBE 220600Z 02007KT 9999 -RA FEW005 SCT009 BKN025 03/02 Q1010
RJBE 220500Z 08010KT 9999 -RA FEW008 BKN012 BKN020 03/02 Q1011
RJBE 220400Z 10013KT 070V130 9999 -RA FEW006 SCT020 BKN030 05/01 Q1012
RJBE 220300Z 05007KT 9999 VCSH FEW015 SCT040 BKN050 05/01 Q1013
RJBE 220200Z 05010KT 9999 FEW040 BKN060 BKN080 05/00 Q1015
RJBE 220100Z 05014KT CAVOK 06/01 Q1016
RJBE 220000Z 06013KT CAVOK 05/01 Q1016
RJBE 212300Z 07013KT CAVOK 05/01 Q1016
RJBE 212200Z 08014KT CAVOK 05/01 Q1016
RJBE 211200Z 01005KT 340V040 9999 FEW035 BKN/// 07/M02 Q1020
RJBE 211100Z 01007KT 330V070 9999 FEW035 BKN/// 08/M01 Q1021
RJBE 211000Z 36007KT 9999 FEW030 BKN/// 08/00 Q1020
RJBE 210900Z 02008KT 9999 FEW030 BKN/// 09/01 Q1020
RJBE 210800Z 29005KT 9999 FEW030 BKN050 09/03 Q1019
RJBE 210700Z 28009KT 9999 FEW030 BKN050 09/03 Q1018
RJBE 210600Z 26012KT 9999 FEW030 BKN050 10/03 Q1018
RJBE 210500Z 25011KT 9999 FEW030 09/02 Q1018
RJBE 210400Z 26012KT 9999 FEW025 SCT/// 09/02 Q1019